sensor_id;sensor_type;location;lat;lon;timestamp;P1;durP1;ratioP1;P2;durP2;ratioP2
12445;SDS011;6287;50.984;7.022;2023-05-10T00:01:12;5.37;;;4.00;;
12445;SDS011;6287;50.984;7.022;2023-05-10T00:03:37;5.23;;;3.60;;
12445;SDS011;6287;50.984;7.022;2023-05-10T00:06:06;5.13;;;3.77;;
12445;SDS011;6287;50.984;7.022;2023-05-10T00:08:33;5.07;;;3.40;;
12445;SDS011;6287;50.984;7.022;2023-05-10T00:11:01;6.20;;;3.97;;
12445;SDS011;6287;50.984;7.022;2023-05-10T00:13:29;4.93;;;3.07;;
12445;SDS011;6287;50.984;7.022;2023-05-10T00:15:55;5.77;;;3.87;;
12445;SDS011;6287;50.984;7.022;2023-05-10T00:18:21;5.77;;;3.60;;
12445;SDS011;6287;50.984;7.022;2023-05-10T00:20:46;5.23;;;4.00;;
12445;SDS011;6287;50.984;7.022;2023-05-10T00:23:13;6.33;;;4.40;;
12445;SDS011;6287;50.984;7.022;2023-05-10T00:25:39;5.53;;;4.10;;
12445;SDS011;6287;50.984;7.022;2023-05-10T00:28:07;4.87;;;3.67;;
12445;SDS011;6287;50.984;7.022;2023-05-10T00:30:33;5.90;;;4.27;;
12445;SDS011;6287;50.984;7.022;2023-05-10T00:32:58;6.70;;;4.40;;
12445;SDS011;6287;50.984;7.022;2023-05-10T00:35:24;4.83;;;3.77;;
12445;SDS011;6287;50.984;7.022;2023-05-10T00:37:52;5.63;;;4.47;;
12445;SDS011;6287;50.984;7.022;2023-05-10T00:40:17;7.60;;;4.53;;
12445;SDS011;6287;50.984;7.022;2023-05-10T00:42:43;6.27;;;4.37;;
12445;SDS011;6287;50.984;7.022;2023-05-10T00:45:10;5.23;;;4.37;;
12445;SDS011;6287;50.984;7.022;2023-05-10T00:47:41;6.33;;;4.20;;
12445;SDS011;6287;50.984;7.022;2023-05-10T00:50:07;6.23;;;4.43;;
12445;SDS011;6287;50.984;7.022;2023-05-10T00:52:34;7.73;;;4.70;;
12445;SDS011;6287;50.984;7.022;2023-05-10T00:55:01;7.03;;;4.70;;
12445;SDS011;6287;50.984;7.022;2023-05-10T00:57:30;7.23;;;5.00;;
12445;SDS011;6287;50.984;7.022;2023-05-10T00:59:56;8.90;;;5.17;;
12445;SDS011;6287;50.984;7.022;2023-05-10T01:02:24;7.20;;;5.20;;
12445;SDS011;6287;50.984;7.022;2023-05-10T01:04:52;9.10;;;5.80;;
12445;SDS011;6287;50.984;7.022;2023-05-10T01:07:20;9.93;;;6.03;;
12445;SDS011;6287;50.984;7.022;2023-05-10T01:13:10;8.50;;;5.63;;
12445;SDS011;6287;50.984;7.022;2023-05-10T01:15:40;8.57;;;5.67;;
12445;SDS011;6287;50.984;7.022;2023-05-10T01:18:06;9.27;;;6.00;;
12445;SDS011;6287;50.984;7.022;2023-05-10T01:20:39;8.07;;;5.53;;
12445;SDS011;6287;50.984;7.022;2023-05-10T01:31:39;9.47;;;5.97;;
12445;SDS011;6287;50.984;7.022;2023-05-10T01:34:32;10.57;;;6.43;;
12445;SDS011;6287;50.984;7.022;2023-05-10T01:37:07;10.80;;;6.73;;
12445;SDS011;6287;50.984;7.022;2023-05-10T01:39:45;10.33;;;6.50;;
12445;SDS011;6287;50.984;7.022;2023-05-10T01:42:17;11.07;;;6.40;;
12445;SDS011;6287;50.984;7.022;2023-05-10T01:47:37;10.43;;;6.20;;
12445;SDS011;6287;50.984;7.022;2023-05-10T01:50:16;8.60;;;5.70;;
12445;SDS011;6287;50.984;7.022;2023-05-10T01:52:50;8.93;;;5.93;;
12445;SDS011;6287;50.984;7.022;2023-05-10T01:55:20;8.97;;;6.07;;
12445;SDS011;6287;50.984;7.022;2023-05-10T01:57:48;6.60;;;4.70;;
12445;SDS011;6287;50.984;7.022;2023-05-10T02:00:20;8.67;;;4.63;;
12445;SDS011;6287;50.984;7.022;2023-05-10T02:02:48;8.00;;;4.20;;
12445;SDS011;6287;50.984;7.022;2023-05-10T02:05:19;6.23;;;3.70;;
12445;SDS011;6287;50.984;7.022;2023-05-10T02:07:46;5.43;;;3.93;;
12445;SDS011;6287;50.984;7.022;2023-05-10T02:10:15;3.97;;;3.50;;
12445;SDS011;6287;50.984;7.022;2023-05-10T02:12:43;4.83;;;3.40;;
12445;SDS011;6287;50.984;7.022;2023-05-10T02:15:15;4.77;;;3.67;;
12445;SDS011;6287;50.984;7.022;2023-05-10T02:17:49;4.80;;;3.27;;
12445;SDS011;6287;50.984;7.022;2023-05-10T02:20:19;5.33;;;3.33;;
12445;SDS011;6287;50.984;7.022;2023-05-10T02:22:46;4.03;;;2.80;;
12445;SDS011;6287;50.984;7.022;2023-05-10T02:25:16;5.57;;;2.87;;
12445;SDS011;6287;50.984;7.022;2023-05-10T02:27:46;3.70;;;2.70;;
12445;SDS011;6287;50.984;7.022;2023-05-10T02:30:13;3.83;;;2.77;;
12445;SDS011;6287;50.984;7.022;2023-05-10T02:32:41;3.27;;;2.60;;
12445;SDS011;6287;50.984;7.022;2023-05-10T02:35:10;4.90;;;2.53;;
12445;SDS011;6287;50.984;7.022;2023-05-10T02:37:37;4.20;;;2.80;;
12445;SDS011;6287;50.984;7.022;2023-05-10T02:40:04;3.07;;;2.67;;
12445;SDS011;6287;50.984;7.022;2023-05-10T02:42:35;3.60;;;2.90;;
12445;SDS011;6287;50.984;7.022;2023-05-10T02:45:04;3.87;;;3.17;;
12445;SDS011;6287;50.984;7.022;2023-05-10T02:47:33;4.43;;;2.70;;
12445;SDS011;6287;50.984;7.022;2023-05-10T02:49:58;4.80;;;2.90;;
12445;SDS011;6287;50.984;7.022;2023-05-10T02:52:28;4.77;;;2.43;;
12445;SDS011;6287;50.984;7.022;2023-05-10T02:55:00;4.63;;;2.93;;
12445;SDS011;6287;50.984;7.022;2023-05-10T02:57:31;4.43;;;2.60;;
12445;SDS011;6287;50.984;7.022;2023-05-10T02:59:58;3.80;;;2.53;;
12445;SDS011;6287;50.984;7.022;2023-05-10T03:02:25;3.07;;;2.50;;
12445;SDS011;6287;50.984;7.022;2023-05-10T03:04:55;3.30;;;2.70;;
12445;SDS011;6287;50.984;7.022;2023-05-10T03:07:23;3.93;;;2.80;;
12445;SDS011;6287;50.984;7.022;2023-05-10T03:09:51;3.00;;;2.60;;
12445;SDS011;6287;50.984;7.022;2023-05-10T03:20:31;4.80;;;2.87;;
12445;SDS011;6287;50.984;7.022;2023-05-10T03:23:09;5.03;;;3.03;;
12445;SDS011;6287;50.984;7.022;2023-05-10T03:25:42;3.07;;;2.77;;
12445;SDS011;6287;50.984;7.022;2023-05-10T03:28:11;5.73;;;2.90;;
12445;SDS011;6287;50.984;7.022;2023-05-10T03:30:37;5.17;;;3.00;;
12445;SDS011;6287;50.984;7.022;2023-05-10T03:33:07;4.73;;;3.60;;
12445;SDS011;6287;50.984;7.022;2023-05-10T03:35:36;5.43;;;3.87;;
12445;SDS011;6287;50.984;7.022;2023-05-10T03:38:04;5.03;;;3.40;;
12445;SDS011;6287;50.984;7.022;2023-05-10T03:40:32;5.13;;;4.00;;
12445;SDS011;6287;50.984;7.022;2023-05-10T03:42:58;4.70;;;3.90;;
12445;SDS011;6287;50.984;7.022;2023-05-10T03:45:24;5.47;;;4.00;;
12445;SDS011;6287;50.984;7.022;2023-05-10T03:47:50;7.23;;;4.47;;
12445;SDS011;6287;50.984;7.022;2023-05-10T03:50:18;5.60;;;4.23;;
12445;SDS011;6287;50.984;7.022;2023-05-10T03:52:44;6.00;;;3.90;;
12445;SDS011;6287;50.984;7.022;2023-05-10T03:55:09;4.97;;;3.80;;
12445;SDS011;6287;50.984;7.022;2023-05-10T03:57:38;7.87;;;4.80;;
12445;SDS011;6287;50.984;7.022;2023-05-10T04:00:12;5.33;;;3.83;;
12445;SDS011;6287;50.984;7.022;2023-05-10T04:02:38;4.97;;;3.83;;
12445;SDS011;6287;50.984;7.022;2023-05-10T04:05:06;6.87;;;4.50;;
12445;SDS011;6287;50.984;7.022;2023-05-10T04:07:31;5.50;;;4.27;;
12445;SDS011;6287;50.984;7.022;2023-05-10T04:09:57;5.93;;;4.30;;
12445;SDS011;6287;50.984;7.022;2023-05-10T04:12:23;5.50;;;4.20;;
12445;SDS011;6287;50.984;7.022;2023-05-10T04:14:48;8.73;;;4.73;;
12445;SDS011;6287;50.984;7.022;2023-05-10T04:17:14;6.30;;;4.70;;
12445;SDS011;6287;50.984;7.022;2023-05-10T04:19:42;6.50;;;4.80;;
12445;SDS011;6287;50.984;7.022;2023-05-10T04:22:07;6.57;;;4.43;;
12445;SDS011;6287;50.984;7.022;2023-05-10T04:24:33;7.97;;;4.70;;
12445;SDS011;6287;50.984;7.022;2023-05-10T04:26:58;6.53;;;4.57;;
12445;SDS011;6287;50.984;7.022;2023-05-10T04:29:24;7.80;;;4.70;;
12445;SDS011;6287;50.984;7.022;2023-05-10T04:31:54;7.00;;;5.07;;
12445;SDS011;6287;50.984;7.022;2023-05-10T04:34:22;6.33;;;4.60;;
12445;SDS011;6287;50.984;7.022;2023-05-10T04:36:50;9.33;;;5.17;;
12445;SDS011;6287;50.984;7.022;2023-05-10T04:39:15;10.23;;;5.77;;
12445;SDS011;6287;50.984;7.022;2023-05-10T04:41:41;7.80;;;4.97;;
12445;SDS011;6287;50.984;7.022;2023-05-10T04:44:07;10.67;;;5.80;;
12445;SDS011;6287;50.984;7.022;2023-05-10T04:46:32;7.90;;;5.67;;
12445;SDS011;6287;50.984;7.022;2023-05-10T04:49:00;18.80;;;5.80;;
12445;SDS011;6287;50.984;7.022;2023-05-10T04:51:30;12.67;;;6.87;;
12445;SDS011;6287;50.984;7.022;2023-05-10T04:53:58;10.30;;;6.50;;
12445;SDS011;6287;50.984;7.022;2023-05-10T04:56:28;11.27;;;7.63;;
12445;SDS011;6287;50.984;7.022;2023-05-10T04:58:54;11.67;;;7.10;;
12445;SDS011;6287;50.984;7.022;2023-05-10T05:01:22;14.03;;;6.80;;
12445;SDS011;6287;50.984;7.022;2023-05-10T05:03:48;11.17;;;7.40;;
12445;SDS011;6287;50.984;7.022;2023-05-10T05:06:16;14.53;;;7.00;;
12445;SDS011;6287;50.984;7.022;2023-05-10T05:08:43;13.80;;;7.73;;
12445;SDS011;6287;50.984;7.022;2023-05-10T05:11:14;12.80;;;7.80;;
12445;SDS011;6287;50.984;7.022;2023-05-10T05:13:39;15.07;;;7.97;;
12445;SDS011;6287;50.984;7.022;2023-05-10T05:16:05;13.60;;;8.27;;
12445;SDS011;6287;50.984;7.022;2023-05-10T05:18:33;15.07;;;8.03;;
12445;SDS011;6287;50.984;7.022;2023-05-10T05:20:59;13.90;;;8.00;;
12445;SDS011;6287;50.984;7.022;2023-05-10T05:23:29;13.37;;;8.70;;
12445;SDS011;6287;50.984;7.022;2023-05-10T05:25:57;13.93;;;8.00;;
12445;SDS011;6287;50.984;7.022;2023-05-10T05:28:27;14.90;;;8.20;;
12445;SDS011;6287;50.984;7.022;2023-05-10T05:30:57;12.43;;;8.00;;
12445;SDS011;6287;50.984;7.022;2023-05-10T05:33:25;12.97;;;8.10;;
12445;SDS011;6287;50.984;7.022;2023-05-10T05:35:51;12.07;;;8.53;;
12445;SDS011;6287;50.984;7.022;2023-05-10T05:38:16;12.57;;;7.70;;
12445;SDS011;6287;50.984;7.022;2023-05-10T05:40:42;10.90;;;7.10;;
12445;SDS011;6287;50.984;7.022;2023-05-10T05:43:15;12.17;;;7.40;;
12445;SDS011;6287;50.984;7.022;2023-05-10T05:45:46;11.60;;;7.20;;
12445;SDS011;6287;50.984;7.022;2023-05-10T05:48:11;12.47;;;7.77;;
12445;SDS011;6287;50.984;7.022;2023-05-10T05:50:39;12.77;;;7.20;;
12445;SDS011;6287;50.984;7.022;2023-05-10T05:53:07;11.30;;;7.20;;
12445;SDS011;6287;50.984;7.022;2023-05-10T05:55:33;12.50;;;7.20;;
12445;SDS011;6287;50.984;7.022;2023-05-10T05:58:01;11.03;;;6.80;;
12445;SDS011;6287;50.984;7.022;2023-05-10T06:00:29;10.70;;;6.90;;
12445;SDS011;6287;50.984;7.022;2023-05-10T06:02:56;9.70;;;6.70;;
12445;SDS011;6287;50.984;7.022;2023-05-10T06:05:24;11.50;;;6.73;;
12445;SDS011;6287;50.984;7.022;2023-05-10T06:07:52;11.00;;;6.20;;
12445;SDS011;6287;50.984;7.022;2023-05-10T06:10:20;14.83;;;6.67;;
12445;SDS011;6287;50.984;7.022;2023-05-10T06:12:51;9.40;;;6.20;;
12445;SDS011;6287;50.984;7.022;2023-05-10T06:15:17;10.77;;;6.40;;
12445;SDS011;6287;50.984;7.022;2023-05-10T06:17:43;12.83;;;7.17;;
12445;SDS011;6287;50.984;7.022;2023-05-10T06:20:11;9.83;;;6.63;;
12445;SDS011;6287;50.984;7.022;2023-05-10T06:22:38;10.93;;;6.27;;
12445;SDS011;6287;50.984;7.022;2023-05-10T06:25:03;8.73;;;5.73;;
12445;SDS011;6287;50.984;7.022;2023-05-10T06:27:29;8.37;;;5.93;;
12445;SDS011;6287;50.984;7.022;2023-05-10T06:29:59;10.17;;;6.23;;
12445;SDS011;6287;50.984;7.022;2023-05-10T06:32:27;10.77;;;6.27;;
12445;SDS011;6287;50.984;7.022;2023-05-10T06:34:53;10.17;;;6.17;;
12445;SDS011;6287;50.984;7.022;2023-05-10T06:37:19;10.53;;;6.63;;
12445;SDS011;6287;50.984;7.022;2023-05-10T06:39:47;16.37;;;6.43;;
12445;SDS011;6287;50.984;7.022;2023-05-10T06:42:13;9.83;;;5.40;;
12445;SDS011;6287;50.984;7.022;2023-05-10T06:44:39;8.60;;;5.90;;
12445;SDS011;6287;50.984;7.022;2023-05-10T06:47:06;9.57;;;6.10;;
12445;SDS011;6287;50.984;7.022;2023-05-10T06:49:32;9.27;;;5.73;;
12445;SDS011;6287;50.984;7.022;2023-05-10T06:51:57;9.67;;;5.80;;
12445;SDS011;6287;50.984;7.022;2023-05-10T06:54:26;9.60;;;6.00;;
12445;SDS011;6287;50.984;7.022;2023-05-10T06:56:57;11.80;;;6.43;;
12445;SDS011;6287;50.984;7.022;2023-05-10T06:59:27;10.70;;;6.13;;
12445;SDS011;6287;50.984;7.022;2023-05-10T07:01:55;9.83;;;6.10;;
12445;SDS011;6287;50.984;7.022;2023-05-10T07:04:23;9.93;;;6.27;;
12445;SDS011;6287;50.984;7.022;2023-05-10T07:06:48;13.73;;;6.90;;
12445;SDS011;6287;50.984;7.022;2023-05-10T07:09:19;13.30;;;7.23;;
12445;SDS011;6287;50.984;7.022;2023-05-10T07:11:46;11.13;;;6.60;;
12445;SDS011;6287;50.984;7.022;2023-05-10T07:14:14;10.67;;;6.67;;
12445;SDS011;6287;50.984;7.022;2023-05-10T07:16:42;12.13;;;7.00;;
12445;SDS011;6287;50.984;7.022;2023-05-10T07:19:10;12.10;;;7.27;;
12445;SDS011;6287;50.984;7.022;2023-05-10T07:21:38;10.83;;;6.93;;
12445;SDS011;6287;50.984;7.022;2023-05-10T07:24:05;12.33;;;7.17;;
12445;SDS011;6287;50.984;7.022;2023-05-10T07:26:31;11.77;;;7.10;;
12445;SDS011;6287;50.984;7.022;2023-05-10T07:28:58;11.17;;;6.80;;
12445;SDS011;6287;50.984;7.022;2023-05-10T07:31:26;14.50;;;7.70;;
12445;SDS011;6287;50.984;7.022;2023-05-10T07:33:56;11.73;;;7.13;;
12445;SDS011;6287;50.984;7.022;2023-05-10T07:36:24;12.80;;;8.10;;
12445;SDS011;6287;50.984;7.022;2023-05-10T07:38:50;13.67;;;7.90;;
12445;SDS011;6287;50.984;7.022;2023-05-10T07:41:16;13.27;;;7.57;;
12445;SDS011;6287;50.984;7.022;2023-05-10T07:43:43;12.13;;;8.00;;
12445;SDS011;6287;50.984;7.022;2023-05-10T07:46:09;12.73;;;7.67;;
12445;SDS011;6287;50.984;7.022;2023-05-10T07:48:37;11.50;;;6.50;;
12445;SDS011;6287;50.984;7.022;2023-05-10T07:51:04;10.40;;;6.73;;
12445;SDS011;6287;50.984;7.022;2023-05-10T07:53:32;11.30;;;6.50;;
12445;SDS011;6287;50.984;7.022;2023-05-10T07:55:57;11.37;;;6.57;;
12445;SDS011;6287;50.984;7.022;2023-05-10T07:58:24;10.97;;;6.57;;
12445;SDS011;6287;50.984;7.022;2023-05-10T08:00:51;10.30;;;6.23;;
12445;SDS011;6287;50.984;7.022;2023-05-10T08:03:20;11.80;;;6.43;;
12445;SDS011;6287;50.984;7.022;2023-05-10T08:05:45;9.73;;;6.23;;
12445;SDS011;6287;50.984;7.022;2023-05-10T08:08:13;8.17;;;5.60;;
12445;SDS011;6287;50.984;7.022;2023-05-10T08:10:39;9.93;;;5.93;;
12445;SDS011;6287;50.984;7.022;2023-05-10T08:13:06;12.00;;;6.20;;
12445;SDS011;6287;50.984;7.022;2023-05-10T08:15:34;10.07;;;6.30;;
12445;SDS011;6287;50.984;7.022;2023-05-10T08:18:00;8.80;;;6.20;;
12445;SDS011;6287;50.984;7.022;2023-05-10T08:20:29;9.80;;;5.90;;
12445;SDS011;6287;50.984;7.022;2023-05-10T08:22:56;8.20;;;6.20;;
12445;SDS011;6287;50.984;7.022;2023-05-10T08:25:22;8.90;;;5.20;;
12445;SDS011;6287;50.984;7.022;2023-05-10T08:27:47;7.37;;;4.83;;
12445;SDS011;6287;50.984;7.022;2023-05-10T08:30:17;6.80;;;4.37;;
12445;SDS011;6287;50.984;7.022;2023-05-10T08:32:45;7.70;;;4.47;;
12445;SDS011;6287;50.984;7.022;2023-05-10T08:35:13;7.33;;;4.30;;
12445;SDS011;6287;50.984;7.022;2023-05-10T08:37:39;7.17;;;4.20;;
12445;SDS011;6287;50.984;7.022;2023-05-10T08:40:07;7.67;;;3.90;;
12445;SDS011;6287;50.984;7.022;2023-05-10T08:42:36;5.63;;;3.87;;
12445;SDS011;6287;50.984;7.022;2023-05-10T08:45:05;5.57;;;3.50;;
12445;SDS011;6287;50.984;7.022;2023-05-10T08:47:36;5.60;;;3.77;;
12445;SDS011;6287;50.984;7.022;2023-05-10T08:50:03;5.93;;;3.60;;
12445;SDS011;6287;50.984;7.022;2023-05-10T08:52:28;6.13;;;4.17;;
12445;SDS011;6287;50.984;7.022;2023-05-10T08:54:55;5.63;;;4.07;;
12445;SDS011;6287;50.984;7.022;2023-05-10T08:57:24;7.00;;;4.27;;
12445;SDS011;6287;50.984;7.022;2023-05-10T08:59:50;6.63;;;4.83;;
12445;SDS011;6287;50.984;7.022;2023-05-10T09:02:18;7.43;;;4.33;;
12445;SDS011;6287;50.984;7.022;2023-05-10T09:04:46;7.20;;;4.97;;
12445;SDS011;6287;50.984;7.022;2023-05-10T09:07:11;9.30;;;5.17;;
12445;SDS011;6287;50.984;7.022;2023-05-10T09:09:37;8.37;;;5.43;;
12445;SDS011;6287;50.984;7.022;2023-05-10T09:12:03;8.50;;;5.33;;
12445;SDS011;6287;50.984;7.022;2023-05-10T09:14:29;7.63;;;5.60;;
12445;SDS011;6287;50.984;7.022;2023-05-10T09:16:55;8.57;;;5.83;;
12445;SDS011;6287;50.984;7.022;2023-05-10T09:19:21;10.10;;;5.57;;
12445;SDS011;6287;50.984;7.022;2023-05-10T09:21:47;11.90;;;6.23;;
12445;SDS011;6287;50.984;7.022;2023-05-10T09:24:16;12.83;;;6.77;;
12445;SDS011;6287;50.984;7.022;2023-05-10T09:26:50;14.63;;;7.47;;
12445;SDS011;6287;50.984;7.022;2023-05-10T09:29:16;11.13;;;6.30;;
12445;SDS011;6287;50.984;7.022;2023-05-10T09:31:49;12.33;;;6.47;;
12445;SDS011;6287;50.984;7.022;2023-05-10T09:34:29;11.57;;;6.50;;
12445;SDS011;6287;50.984;7.022;2023-05-10T09:36:57;11.83;;;7.30;;
12445;SDS011;6287;50.984;7.022;2023-05-10T09:39:37;15.60;;;7.93;;
12445;SDS011;6287;50.984;7.022;2023-05-10T09:42:04;12.03;;;7.17;;
12445;SDS011;6287;50.984;7.022;2023-05-10T09:44:34;13.97;;;7.60;;
12445;SDS011;6287;50.984;7.022;2023-05-10T09:47:05;14.57;;;7.90;;
12445;SDS011;6287;50.984;7.022;2023-05-10T09:49:30;13.67;;;7.27;;
12445;SDS011;6287;50.984;7.022;2023-05-10T09:52:03;15.23;;;8.13;;
12445;SDS011;6287;50.984;7.022;2023-05-10T09:54:30;14.93;;;8.13;;
12445;SDS011;6287;50.984;7.022;2023-05-10T09:57:01;16.60;;;8.07;;
12445;SDS011;6287;50.984;7.022;2023-05-10T09:59:27;14.20;;;8.33;;
12445;SDS011;6287;50.984;7.022;2023-05-10T10:01:56;14.90;;;8.10;;
12445;SDS011;6287;50.984;7.022;2023-05-10T10:04:23;14.90;;;7.67;;
12445;SDS011;6287;50.984;7.022;2023-05-10T10:07:04;13.97;;;7.00;;
12445;SDS011;6287;50.984;7.022;2023-05-10T10:09:30;13.90;;;7.67;;
12445;SDS011;6287;50.984;7.022;2023-05-10T10:12:00;17.73;;;8.73;;
12445;SDS011;6287;50.984;7.022;2023-05-10T10:14:28;12.80;;;7.53;;
12445;SDS011;6287;50.984;7.022;2023-05-10T10:16:56;14.73;;;8.30;;
12445;SDS011;6287;50.984;7.022;2023-05-10T10:19:25;12.03;;;7.63;;
12445;SDS011;6287;50.984;7.022;2023-05-10T10:21:51;13.33;;;7.37;;
12445;SDS011;6287;50.984;7.022;2023-05-10T10:24:17;9.53;;;6.70;;
12445;SDS011;6287;50.984;7.022;2023-05-10T10:26:45;11.30;;;6.40;;
12445;SDS011;6287;50.984;7.022;2023-05-10T10:31:57;10.80;;;6.20;;
12445;SDS011;6287;50.984;7.022;2023-05-10T10:34:46;13.43;;;6.47;;
12445;SDS011;6287;50.984;7.022;2023-05-10T10:37:12;9.47;;;5.90;;
12445;SDS011;6287;50.984;7.022;2023-05-10T10:39:40;8.67;;;6.10;;
12445;SDS011;6287;50.984;7.022;2023-05-10T10:42:06;9.10;;;6.30;;
12445;SDS011;6287;50.984;7.022;2023-05-10T10:44:38;7.77;;;5.43;;
12445;SDS011;6287;50.984;7.022;2023-05-10T10:49:48;7.57;;;5.43;;
12445;SDS011;6287;50.984;7.022;2023-05-10T10:52:30;9.63;;;6.20;;
12445;SDS011;6287;50.984;7.022;2023-05-10T11:00:23;7.65;;;5.22;;
12445;SDS011;6287;50.984;7.022;2023-05-10T11:07:59;5.15;;;3.97;;
12445;SDS011;6287;50.984;7.022;2023-05-10T11:10:31;5.22;;;3.78;;
12445;SDS011;6287;50.984;7.022;2023-05-10T11:13:09;7.60;;;3.58;;
12445;SDS011;6287;50.984;7.022;2023-05-10T11:15:38;6.63;;;4.38;;
12445;SDS011;6287;50.984;7.022;2023-05-10T11:18:19;5.07;;;3.83;;
12445;SDS011;6287;50.984;7.022;2023-05-10T11:20:50;4.25;;;3.47;;
12445;SDS011;6287;50.984;7.022;2023-05-10T11:23:23;5.13;;;3.63;;
12445;SDS011;6287;50.984;7.022;2023-05-10T11:25:54;6.75;;;3.83;;
12445;SDS011;6287;50.984;7.022;2023-05-10T11:28:22;6.78;;;3.90;;
12445;SDS011;6287;50.984;7.022;2023-05-10T11:30:52;6.18;;;3.78;;
12445;SDS011;6287;50.984;7.022;2023-05-10T11:33:21;6.13;;;4.27;;
12445;SDS011;6287;50.984;7.022;2023-05-10T11:35:49;4.57;;;3.07;;
12445;SDS011;6287;50.984;7.022;2023-05-10T11:38:15;4.83;;;3.43;;
12445;SDS011;6287;50.984;7.022;2023-05-10T11:40:41;5.47;;;3.23;;
12445;SDS011;6287;50.984;7.022;2023-05-10T11:43:09;3.50;;;3.07;;
12445;SDS011;6287;50.984;7.022;2023-05-10T11:45:36;3.93;;;3.20;;
12445;SDS011;6287;50.984;7.022;2023-05-10T11:48:02;4.85;;;3.63;;
12445;SDS011;6287;50.984;7.022;2023-05-10T11:50:30;3.25;;;2.88;;
12445;SDS011;6287;50.984;7.022;2023-05-10T11:52:57;3.05;;;2.70;;
12445;SDS011;6287;50.984;7.022;2023-05-10T11:55:23;4.07;;;2.85;;
12445;SDS011;6287;50.984;7.022;2023-05-10T11:57:54;4.95;;;3.03;;
12445;SDS011;6287;50.984;7.022;2023-05-10T12:00:20;4.45;;;3.15;;
12445;SDS011;6287;50.984;7.022;2023-05-10T12:02:46;2.95;;;2.65;;
12445;SDS011;6287;50.984;7.022;2023-05-10T12:05:12;3.83;;;2.60;;
12445;SDS011;6287;50.984;7.022;2023-05-10T12:07:40;3.33;;;2.17;;
12445;SDS011;6287;50.984;7.022;2023-05-10T12:10:06;2.47;;;2.22;;
12445;SDS011;6287;50.984;7.022;2023-05-10T12:12:43;1.95;;;1.73;;
12445;SDS011;6287;50.984;7.022;2023-05-10T12:15:17;3.38;;;1.98;;
12445;SDS011;6287;50.984;7.022;2023-05-10T12:17:49;1.65;;;1.50;;
12445;SDS011;6287;50.984;7.022;2023-05-10T12:20:19;1.45;;;1.35;;
12445;SDS011;6287;50.984;7.022;2023-05-10T12:22:47;2.55;;;1.30;;
12445;SDS011;6287;50.984;7.022;2023-05-10T12:25:17;1.70;;;1.60;;
12445;SDS011;6287;50.984;7.022;2023-05-10T12:27:53;2.10;;;1.50;;
12445;SDS011;6287;50.984;7.022;2023-05-10T12:32:54;2.00;;;1.73;;
12445;SDS011;6287;50.984;7.022;2023-05-10T12:35:44;1.35;;;1.25;;
12445;SDS011;6287;50.984;7.022;2023-05-10T12:41:03;1.73;;;1.63;;
12445;SDS011;6287;50.984;7.022;2023-05-10T12:43:31;2.67;;;1.65;;
12445;SDS011;6287;50.984;7.022;2023-05-10T12:45:57;2.65;;;1.75;;
12445;SDS011;6287;50.984;7.022;2023-05-10T12:48:25;2.03;;;1.83;;
12445;SDS011;6287;50.984;7.022;2023-05-10T12:50:51;1.85;;;1.70;;
12445;SDS011;6287;50.984;7.022;2023-05-10T12:53:16;1.80;;;1.70;;
12445;SDS011;6287;50.984;7.022;2023-05-10T12:55:44;1.98;;;1.70;;
12445;SDS011;6287;50.984;7.022;2023-05-10T12:58:12;1.50;;;1.40;;
12445;SDS011;6287;50.984;7.022;2023-05-10T13:00:41;0.95;;;0.95;;
12445;SDS011;6287;50.984;7.022;2023-05-10T13:03:06;1.40;;;1.30;;
12445;SDS011;6287;50.984;7.022;2023-05-10T13:05:32;1.45;;;1.35;;
12445;SDS011;6287;50.984;7.022;2023-05-10T13:07:58;1.55;;;1.45;;
12445;SDS011;6287;50.984;7.022;2023-05-10T13:10:23;1.65;;;1.55;;
12445;SDS011;6287;50.984;7.022;2023-05-10T13:12:51;1.20;;;1.20;;
12445;SDS011;6287;50.984;7.022;2023-05-10T13:15:17;1.30;;;1.15;;
12445;SDS011;6287;50.984;7.022;2023-05-10T13:17:42;1.35;;;1.10;;
12445;SDS011;6287;50.984;7.022;2023-05-10T13:20:10;1.40;;;1.00;;
12445;SDS011;6287;50.984;7.022;2023-05-10T13:22:41;1.95;;;1.10;;
12445;SDS011;6287;50.984;7.022;2023-05-10T13:25:12;1.10;;;1.00;;
12445;SDS011;6287;50.984;7.022;2023-05-10T13:27:40;1.33;;;1.23;;
12445;SDS011;6287;50.984;7.022;2023-05-10T13:30:06;2.58;;;0.90;;
12445;SDS011;6287;50.984;7.022;2023-05-10T13:32:33;1.20;;;1.10;;
12445;SDS011;6287;50.984;7.022;2023-05-10T13:35:01;1.25;;;1.05;;
12445;SDS011;6287;50.984;7.022;2023-05-10T13:37:35;1.00;;;1.00;;
12445;SDS011;6287;50.984;7.022;2023-05-10T13:40:03;0.93;;;0.93;;
12445;SDS011;6287;50.984;7.022;2023-05-10T13:42:31;1.00;;;1.00;;
12445;SDS011;6287;50.984;7.022;2023-05-10T13:44:58;0.80;;;0.80;;
12445;SDS011;6287;50.984;7.022;2023-05-10T13:47:26;1.25;;;0.90;;
12445;SDS011;6287;50.984;7.022;2023-05-10T13:49:54;0.88;;;0.88;;
12445;SDS011;6287;50.984;7.022;2023-05-10T13:52:20;0.90;;;0.90;;
12445;SDS011;6287;50.984;7.022;2023-05-10T13:54:49;0.80;;;0.73;;
12445;SDS011;6287;50.984;7.022;2023-05-10T13:57:19;0.85;;;0.85;;
12445;SDS011;6287;50.984;7.022;2023-05-10T13:59:45;0.60;;;0.60;;
12445;SDS011;6287;50.984;7.022;2023-05-10T14:02:10;0.63;;;0.63;;
12445;SDS011;6287;50.984;7.022;2023-05-10T14:04:37;0.70;;;0.70;;
12445;SDS011;6287;50.984;7.022;2023-05-10T14:07:05;0.93;;;0.60;;
12445;SDS011;6287;50.984;7.022;2023-05-10T14:09:31;1.35;;;0.80;;
12445;SDS011;6287;50.984;7.022;2023-05-10T14:11:56;0.43;;;0.43;;
12445;SDS011;6287;50.984;7.022;2023-05-10T14:14:22;0.68;;;0.68;;
12445;SDS011;6287;50.984;7.022;2023-05-10T14:16:48;0.63;;;0.63;;
12445;SDS011;6287;50.984;7.022;2023-05-10T14:19:13;0.60;;;0.60;;
12445;SDS011;6287;50.984;7.022;2023-05-10T14:21:39;1.38;;;0.95;;
12445;SDS011;6287;50.984;7.022;2023-05-10T14:24:08;0.70;;;0.60;;
12445;SDS011;6287;50.984;7.022;2023-05-10T14:26:36;0.88;;;0.88;;
12445;SDS011;6287;50.984;7.022;2023-05-10T14:29:04;2.33;;;0.90;;
12445;SDS011;6287;50.984;7.022;2023-05-10T14:31:29;1.08;;;0.80;;
12445;SDS011;6287;50.984;7.022;2023-05-10T14:33:58;1.23;;;0.80;;
12445;SDS011;6287;50.984;7.022;2023-05-10T14:36:25;0.93;;;0.77;;
12445;SDS011;6287;50.984;7.022;2023-05-10T14:38:56;0.80;;;0.80;;
12445;SDS011;6287;50.984;7.022;2023-05-10T14:41:24;1.48;;;0.90;;
12445;SDS011;6287;50.984;7.022;2023-05-10T14:43:49;0.73;;;0.70;;
12445;SDS011;6287;50.984;7.022;2023-05-10T14:46:15;0.70;;;0.70;;
12445;SDS011;6287;50.984;7.022;2023-05-10T14:48:41;0.77;;;0.77;;
12445;SDS011;6287;50.984;7.022;2023-05-10T14:51:08;0.65;;;0.65;;
12445;SDS011;6287;50.984;7.022;2023-05-10T14:53:34;1.00;;;0.90;;
12445;SDS011;6287;50.984;7.022;2023-05-10T14:56:02;1.50;;;0.93;;
12445;SDS011;6287;50.984;7.022;2023-05-10T14:58:30;1.55;;;0.80;;
12445;SDS011;6287;50.984;7.022;2023-05-10T15:00:58;1.10;;;1.00;;
12445;SDS011;6287;50.984;7.022;2023-05-10T15:03:23;1.42;;;1.02;;
12445;SDS011;6287;50.984;7.022;2023-05-10T15:05:49;1.60;;;0.90;;
12445;SDS011;6287;50.984;7.022;2023-05-10T15:08:18;1.00;;;0.90;;
12445;SDS011;6287;50.984;7.022;2023-05-10T15:10:44;1.92;;;1.70;;
12445;SDS011;6287;50.984;7.022;2023-05-10T15:13:09;5.68;;;3.55;;
12445;SDS011;6287;50.984;7.022;2023-05-10T15:15:35;3.58;;;3.03;;
12445;SDS011;6287;50.984;7.022;2023-05-10T15:18:00;3.15;;;2.78;;
12445;SDS011;6287;50.984;7.022;2023-05-10T15:20:26;3.55;;;3.10;;
12445;SDS011;6287;50.984;7.022;2023-05-10T15:22:52;3.20;;;2.47;;
12445;SDS011;6287;50.984;7.022;2023-05-10T15:25:20;4.13;;;2.65;;
12445;SDS011;6287;50.984;7.022;2023-05-10T15:27:45;3.85;;;3.30;;
12445;SDS011;6287;50.984;7.022;2023-05-10T15:30:13;3.38;;;3.08;;
12445;SDS011;6287;50.984;7.022;2023-05-10T15:32:41;3.20;;;2.92;;
12445;SDS011;6287;50.984;7.022;2023-05-10T15:35:07;4.72;;;3.00;;
12445;SDS011;6287;50.984;7.022;2023-05-10T15:37:34;5.07;;;2.72;;
12445;SDS011;6287;50.984;7.022;2023-05-10T15:40:00;5.10;;;2.83;;
12445;SDS011;6287;50.984;7.022;2023-05-10T15:42:30;3.47;;;2.70;;
12445;SDS011;6287;50.984;7.022;2023-05-10T15:44:58;4.22;;;3.10;;
12445;SDS011;6287;50.984;7.022;2023-05-10T15:47:29;3.72;;;2.88;;